Observation data for Brownfield on 01/17/2019      Previous  Date  Next       Current Mesonet Observations  Soil Data  Daily Summary Page  Observations in Plain Language
KBWS 170600Z 29013KT 09/M01 A3013 RMK A01 T00891007  RH  052%=      5-min Rain = 0
KBWS 170605Z 29012KT 09/M01 A3013 RMK A01 T00891006  RH  052%=      5-min Rain = 0
KBWS 170610Z 29013KT 09/M01 A3013 RMK A01 T00901006  RH  052%=      5-min Rain = 0
KBWS 170615Z 30012KT 09/M01 A3013 RMK A01 T00891006  RH  052%=      5-min Rain = 0
KBWS 170620Z 30012KT 09/M01 A3013 RMK A01 T00901005  RH  052%=      5-min Rain = 0
KBWS 170625Z 30012KT 09/M01 A3012 RMK A01 T00911005  RH  052%=      5-min Rain = 0
KBWS 170630Z 30012KT 09/M00 A3012 RMK A01 T00921004  RH  051%=      5-min Rain = 0
KBWS 170635Z 30012KT 10/M00 A3012 RMK A01 T00951004  RH  051%=      5-min Rain = 0
KBWS 170640Z 30012KT 10/M00 A3012 RMK A01 T00961004  RH  050%=      5-min Rain = 0
KBWS 170645Z 30011KT 10/M00 A3013 RMK A01 T00961004  RH  051%=      5-min Rain = 0
KBWS 170650Z 30012KT 09/M00 A3013 RMK A01 T00941003  RH  051%=      5-min Rain = 0
KBWS 170655Z 31012KT 10/M00 A3013 RMK A01 T00951003  RH  051%=      5-min Rain = 0
KBWS 170700Z 30012KT 10/M00 A3013 RMK A01 T00971003  RH  050%=      5-min Rain = 0
KBWS 170705Z 30012KT 10/M00 A3013 RMK A01 T00971003  RH  051%=      5-min Rain = 0
KBWS 170710Z 31011KT 10/M00 A3013 RMK A01 T00961003  RH  051%=      5-min Rain = 0
KBWS 170715Z 31011KT 09/M00 A3013 RMK A01 T00931003  RH  052%=      5-min Rain = 0
KBWS 170720Z 31012KT 09/M00 A3012 RMK A01 T00911003  RH  053%=      5-min Rain = 0
KBWS 170725Z 31012KT 09/M00 A3012 RMK A01 T00901003  RH  053%=      5-min Rain = 0
KBWS 170730Z 31012KT 09/M00 A3012 RMK A01 T00891003  RH  053%=      5-min Rain = 0
KBWS 170735Z 30012KT 09/M00 A3012 RMK A01 T00901003  RH  053%=      5-min Rain = 0
KBWS 170740Z 30009KT 09/M00 A3013 RMK A01 T00881003  RH  053%=      5-min Rain = 0
KBWS 170745Z 30009KT 08/M00 A3013 RMK A01 T00841003  RH  055%=      5-min Rain = 0
KBWS 170750Z 30011KT 09/M00 A3013 RMK A01 T00861003  RH  054%=      5-min Rain = 0
KBWS 170755Z 30012KT 09/M00 A3013 RMK A01 T00881003  RH  054%=      5-min Rain = 0
KBWS 170800Z 30012G17KT 09/M00 A3013 RMK A01 T00901003  RH  053%=      5-min Rain = 0
KBWS 170805Z 30013KT 09/M00 A3013 RMK A01 T00911004  RH  052%=      5-min Rain = 0
KBWS 170810Z 30014KT 09/M00 A3013 RMK A01 T00921004  RH  052%=      5-min Rain = 0
KBWS 170815Z 30013KT 09/M00 A3014 RMK A01 T00911004  RH  052%=      5-min Rain = 0
KBWS 170820Z 30014KT 09/M00 A3014 RMK A01 T00911004  RH  052%=      5-min Rain = 0
KBWS 170825Z 30014KT 09/M01 A3014 RMK A01 T00931005  RH  051%=      5-min Rain = 0
KBWS 170830Z 30015KT 09/M01 A3014 RMK A01 T00931005  RH  051%=      5-min Rain = 0
KBWS 170835Z 29014KT 09/M01 A3014 RMK A01 T00891005  RH  053%=      5-min Rain = 0
KBWS 170840Z 29013KT 08/M01 A3014 RMK A01 T00841005  RH  054%=      5-min Rain = 0
KBWS 170845Z 30013KT 08/M01 A3014 RMK A01 T00821005  RH  055%=      5-min Rain = 0
KBWS 170850Z 30013KT 08/M01 A3014 RMK A01 T00811005  RH  055%=      5-min Rain = 0
KBWS 170855Z 29013KT 08/M01 A3014 RMK A01 T00811006  RH  055%=      5-min Rain = 0
KBWS 170900Z 29013KT 08/M01 A3014 RMK A01 T00781006  RH  056%=      5-min Rain = 0
KBWS 170905Z 29014KT 08/M01 A3014 RMK A01 T00781007  RH  056%=      5-min Rain = 0
KBWS 170910Z 29014KT 08/M01 A3014 RMK A01 T00781007  RH  055%=      5-min Rain = 0
KBWS 170915Z 29013KT 08/M01 A3014 RMK A01 T00781007  RH  056%=      5-min Rain = 0
KBWS 170920Z 30012KT 08/M01 A3015 RMK A01 T00771008  RH  056%=      5-min Rain = 0
KBWS 170925Z 30012KT 08/M01 A3015 RMK A01 T00791008  RH  055%=      5-min Rain = 0
KBWS 170930Z 31013G18KT 09/M01 A3015 RMK A01 T00851008  RH  053%=      5-min Rain = 0
KBWS 170935Z 31015KT 09/M01 A3015 RMK A01 T00911009  RH  050%=      5-min Rain = 0
KBWS 170940Z 30015KT 09/M01 A3015 RMK A01 T00931009  RH  049%=      5-min Rain = 0
KBWS 170945Z 30015KT 09/M01 A3015 RMK A01 T00931010  RH  049%=      5-min Rain = 0
KBWS 170950Z 30015KT 09/M01 A3015 RMK A01 T00901010  RH  050%=      5-min Rain = 0
KBWS 170955Z 29014KT 09/M01 A3015 RMK A01 T00881010  RH  051%=      5-min Rain = 0
KBWS 171000Z 28016KT 09/M01 A3015 RMK A01 T00901010  RH  050%=      5-min Rain = 0
KBWS 171005Z 28016KT 09/M01 A3015 RMK A01 T00931011  RH  049%=      5-min Rain = 0
KBWS 171010Z 28015KT 10/M01 A3015 RMK A01 T00951011  RH  048%=      5-min Rain = 0
KBWS 171015Z 29013G19KT 09/M01 A3015 RMK A01 T00931012  RH  049%=      5-min Rain = 0
KBWS 171020Z 28012KT 09/M01 A3015 RMK A01 T00871011  RH  050%=      5-min Rain = 0
KBWS 171025Z 28010KT 09/M01 A3015 RMK A01 T00871011  RH  051%=      5-min Rain = 0
KBWS 171030Z 28011G16KT 09/M01 A3015 RMK A01 T00861012  RH  051%=      5-min Rain = 0
KBWS 171035Z 29012KT 09/M01 A3015 RMK A01 T00881012  RH  050%=      5-min Rain = 0
KBWS 171040Z 28011KT 08/M01 A3015 RMK A01 T00841012  RH  051%=      5-min Rain = 0
KBWS 171045Z 28012KT 08/M01 A3014 RMK A01 T00841012  RH  051%=      5-min Rain = 0
KBWS 171050Z 27011KT 08/M01 A3014 RMK A01 T00831012  RH  052%=      5-min Rain = 0
KBWS 171055Z 27012KT 08/M01 A3014 RMK A01 T00811012  RH  052%=      5-min Rain = 0
KBWS 171100Z 27013KT 09/M01 A3014 RMK A01 T00861012  RH  051%=      5-min Rain = 0
KBWS 171105Z 27013G18KT 09/M01 A3014 RMK A01 T00871012  RH  050%=      5-min Rain = 0
KBWS 171110Z 27014KT 09/M01 A3014 RMK A01 T00851012  RH  051%=      5-min Rain = 0
KBWS 171115Z 28013KT 09/M01 A3014 RMK A01 T00871012  RH  051%=      5-min Rain = 0
KBWS 171120Z 28014G19KT 09/M01 A3014 RMK A01 T00891012  RH  050%=      5-min Rain = 0
KBWS 171125Z 28012KT 09/M01 A3014 RMK A01 T00891012  RH  050%=      5-min Rain = 0
KBWS 171130Z 29012KT 09/M01 A3014 RMK A01 T00871012  RH  051%=      5-min Rain = 0
KBWS 171135Z 29012KT 08/M01 A3014 RMK A01 T00841012  RH  051%=      5-min Rain = 0
KBWS 171140Z 28012KT 09/M01 A3014 RMK A01 T00851011  RH  051%=      5-min Rain = 0
KBWS 171145Z 29013KT 09/M01 A3014 RMK A01 T00861011  RH  051%=      5-min Rain = 0
KBWS 171150Z 28013G18KT 09/M01 A3014 RMK A01 T00851011  RH  051%=      5-min Rain = 0
KBWS 171155Z 29013G18KT 09/M01 A3014 RMK A01 T00851011  RH  051%=      5-min Rain = 0
KBWS 171200Z 29012KT 08/M01 A3015 RMK A01 T00791012  RH  053%=      5-min Rain = 0
KBWS 171205Z 30010KT 07/M01 A3015 RMK A01 T00741012  RH  055%=      5-min Rain = 0
KBWS 171210Z 30008KT 07/M01 A3016 RMK A01 T00711012  RH  056%=      5-min Rain = 0
KBWS 171215Z 28009KT 07/M01 A3016 RMK A01 T00671013  RH  058%=      5-min Rain = 0
KBWS 171220Z 27008KT 06/M01 A3016 RMK A01 T00641012  RH  059%=      5-min Rain = 0
KBWS 171225Z 28007KT 07/M01 A3016 RMK A01 T00661012  RH  058%=      5-min Rain = 0
KBWS 171230Z 27007KT 06/M01 A3016 RMK A01 T00621013  RH  059%=      5-min Rain = 0
KBWS 171235Z 29009KT 06/M01 A3016 RMK A01 T00601013  RH  060%=      5-min Rain = 0
KBWS 171240Z 29010KT 06/M01 A3016 RMK A01 T00591013  RH  060%=      5-min Rain = 0
KBWS 171245Z 29009KT 06/M01 A3016 RMK A01 T00561014  RH  062%=      5-min Rain = 0
KBWS 171250Z 29009KT 05/M01 A3016 RMK A01 T00531014  RH  062%=      5-min Rain = 0
KBWS 171255Z 29009KT 05/M01 A3017 RMK A01 T00511014  RH  063%=      5-min Rain = 0
KBWS 171300Z 29010KT 05/M01 A3017 RMK A01 T00511014  RH  063%=      5-min Rain = 0
KBWS 171305Z 29010KT 05/M01 A3017 RMK A01 T00511014  RH  064%=      5-min Rain = 0
KBWS 171310Z 29010KT 05/M02 A3017 RMK A01 T00491015  RH  064%=      5-min Rain = 0
KBWS 171315Z 29010KT 05/M02 A3018 RMK A01 T00471016  RH  065%=      5-min Rain = 0
KBWS 171320Z 29010KT 04/M02 A3018 RMK A01 T00441016  RH  066%=      5-min Rain = 0
KBWS 171325Z 29010KT 04/M02 A3019 RMK A01 T00431016  RH  066%=      5-min Rain = 0
KBWS 171330Z 29010KT 04/M02 A3019 RMK A01 T00421017  RH  066%=      5-min Rain = 0
KBWS 171335Z 29010KT 04/M02 A3019 RMK A01 T00441017  RH  066%=      5-min Rain = 0
KBWS 171340Z 29010KT 05/M02 A3019 RMK A01 T00451016  RH  065%=      5-min Rain = 0
KBWS 171345Z 29009KT 05/M02 A3019 RMK A01 T00451016  RH  065%=      5-min Rain = 0
KBWS 171350Z 29009KT 04/M02 A302 RMK A01 T00411016  RH  067%=      5-min Rain = 0
KBWS 171355Z 28009KT 04/M02 A302 RMK A01 T00401016  RH  067%=      5-min Rain = 0
KBWS 171400Z 28010KT 05/M02 A302 RMK A01 T00461015  RH  065%=      5-min Rain = 0
KBWS 171405Z 29010KT 05/M01 A302 RMK A01 T00491014  RH  064%=      5-min Rain = 0
KBWS 171410Z 29012KT 05/M02 A3019 RMK A01 T00481015  RH  064%=      5-min Rain = 0
KBWS 171415Z 29011KT 05/M02 A3019 RMK A01 T00451016  RH  065%=      5-min Rain = 0
KBWS 171420Z 29011KT 05/M02 A3019 RMK A01 T00451015  RH  066%=      5-min Rain = 0
KBWS 171425Z 29011KT 05/M01 A3019 RMK A01 T00471014  RH  065%=      5-min Rain = 0
KBWS 171430Z 29010KT 05/M01 A3019 RMK A01 T00501013  RH  064%=      5-min Rain = 0
KBWS 171435Z 29010KT 05/M01 A3019 RMK A01 T00521012  RH  064%=      5-min Rain = 0
KBWS 171440Z 29009KT 06/M01 A302 RMK A01 T00551011  RH  063%=      5-min Rain = 0
KBWS 171445Z 29009KT 06/M01 A302 RMK A01 T00581009  RH  063%=      5-min Rain = 0
KBWS 171450Z 29009KT 06/M01 A302 RMK A01 T00621008  RH  062%=      5-min Rain = 0
KBWS 171455Z 29010KT 07/M01 A302 RMK A01 T00661007  RH  060%=      5-min Rain = 0
KBWS 171500Z 30010KT 07/M01 A302 RMK A01 T00691006  RH  059%=      5-min Rain = 0
KBWS 171505Z 30011KT 07/M01 A302 RMK A01 T00731006  RH  058%=      5-min Rain = 0
KBWS 171510Z 30012KT 08/M01 A302 RMK A01 T00771005  RH  057%=      5-min Rain = 0
KBWS 171515Z 31012KT 08/M00 A302 RMK A01 T00801004  RH  056%=      5-min Rain = 0
KBWS 171520Z 31011KT 09/M00 A302 RMK A01 T00861002  RH  055%=      5-min Rain = 0
KBWS 171525Z 31012KT 09/M00 A302 RMK A01 T00901001  RH  053%=      5-min Rain = 0
KBWS 171530Z 31012KT 09/00 A302 RMK A01 T009200-0  RH  053%=      5-min Rain = 0
KBWS 171535Z 30011KT 10/00 A3021 RMK A01 T00950001  RH  053%=      5-min Rain = 0
KBWS 171540Z 30010KT 10/00 A3021 RMK A01 T00970002  RH  052%=      5-min Rain = 0
KBWS 171545Z 30010KT 10/00 A3021 RMK A01 T01010003  RH  051%=      5-min Rain = 0
KBWS 171550Z 30010KT 11/00 A3021 RMK A01 T01050004  RH  050%=      5-min Rain = 0
KBWS 171555Z 30009G15KT 11/01 A3021 RMK A01 T01100005  RH  049%=      5-min Rain = 0
KBWS 171600Z 30012KT 11/00 A3022 RMK A01 T01130003  RH  047%=      5-min Rain = 0
KBWS 171605Z 30011KT 12/00 A3022 RMK A01 T01160003  RH  046%=      5-min Rain = 0
KBWS 171610Z 30011KT 12/00 A3022 RMK A01 T01200004  RH  045%=      5-min Rain = 0
KBWS 171615Z 31012KT 12/00 A3022 RMK A01 T01240003  RH  044%=      5-min Rain = 0
KBWS 171620Z 31012KT 13/00 A3022 RMK A01 T01260003  RH  043%=      5-min Rain = 0
KBWS 171625Z 31012KT 13/00 A3021 RMK A01 T01300002  RH  042%=      5-min Rain = 0
KBWS 171630Z 31011KT 13/00 A3022 RMK A01 T01320002  RH  041%=      5-min Rain = 0
KBWS 171635Z 30011KT 13/00 A3022 RMK A01 T01340002  RH  041%=      5-min Rain = 0
KBWS 171640Z 30010KT 14/00 A3022 RMK A01 T01360000  RH  040%=      5-min Rain = 0
KBWS 171645Z 30009KT 14/00 A3022 RMK A01 T01390001  RH  039%=      5-min Rain = 0
KBWS 171650Z 30008KT 14/00 A3023 RMK A01 T01420002  RH  039%=      5-min Rain = 0
KBWS 171655Z 30008KT 14/00 A3023 RMK A01 T014400-0  RH  038%=      5-min Rain = 0
KBWS 171700Z 31008KT 15/M00 A3023 RMK A01 T01451002  RH  037%=      5-min Rain = 0
KBWS 171705Z 31008G13KT 15/M00 A3023 RMK A01 T01471002  RH  036%=      5-min Rain = 0
KBWS 171710Z 33007KT 15/M00 A3023 RMK A01 T01461004  RH  036%=      5-min Rain = 0
KBWS 171715Z 32007KT 15/M00 A3023 RMK A01 T01491003  RH  036%=      5-min Rain = 0
KBWS 171720Z 32007KT 15/M00 A3022 RMK A01 T01491003  RH  036%=      5-min Rain = 0
KBWS 171725Z 34006KT 15/M01 A3022 RMK A01 T01501005  RH  035%=      5-min Rain = 0
KBWS 171730Z 34006KT 15/M01 A3022 RMK A01 T01501008  RH  034%=      5-min Rain = 0
KBWS 171735Z 36006KT 15/M01 A3022 RMK A01 T01521011  RH  033%=      5-min Rain = 0
KBWS 171740Z 34006KT 15/M01 A3022 RMK A01 T01521013  RH  033%=      5-min Rain = 0
KBWS 171745Z 33005KT 15/M01 A3021 RMK A01 T01531012  RH  033%=      5-min Rain = 0
KBWS 171750Z 34005KT 16/M01 A3021 RMK A01 T01571014  RH  031%=      5-min Rain = 0
KBWS 171755Z 32004KT 16/M02 A3021 RMK A01 T01571018  RH  030%=      5-min Rain = 0
KBWS 171800Z 33005KT 16/M01 A3021 RMK A01 T01621011  RH  031%=      5-min Rain = 0
KBWS 171805Z 35005KT 16/M02 A3021 RMK A01 T01621016  RH  030%=      5-min Rain = 0
KBWS 171810Z 36004KT 16/M02 A3021 RMK A01 T01611018  RH  030%=      5-min Rain = 0
KBWS 171815Z 35004KT 16/M02 A302 RMK A01 T01631020  RH  029%=      5-min Rain = 0
KBWS 171820Z 34003KT 16/M03 A302 RMK A01 T01631026  RH  028%=      5-min Rain = 0
KBWS 171825Z 27001KT 17/M02 A302 RMK A01 T01681021  RH  028%=      5-min Rain = 0
KBWS 171830Z 03002KT 17/M02 A302 RMK A01 T01721021  RH  027%=      5-min Rain = 0
KBWS 171835Z 00003KT 17/M02 A3019 RMK A01 T01661021  RH  028%=      5-min Rain = 0
KBWS 171840Z 26003KT 17/M02 A3019 RMK A01 T01701016  RH  028%=      5-min Rain = 0
KBWS 171845Z 24003KT 17/M01 A3018 RMK A01 T01741013  RH  028%=      5-min Rain = 0
KBWS 171850Z 27005KT 17/M01 A3018 RMK A01 T01741011  RH  029%=      5-min Rain = 0
KBWS 171855Z 24003KT 18/M02 A3018 RMK A01 T01751017  RH  027%=      5-min Rain = 0
KBWS 171900Z 32001KT 18/M02 A3017 RMK A01 T01781017  RH  027%=      5-min Rain = 0
KBWS 171905Z 14002KT 18/M02 A3017 RMK A01 T01751016  RH  027%=      5-min Rain = 0
KBWS 171910Z 23002KT 18/M01 A3016 RMK A01 T01791012  RH  028%=      5-min Rain = 0
KBWS 171915Z 21004KT 18/M02 A3016 RMK A01 T01801015  RH  027%=      5-min Rain = 0
KBWS 171920Z 23004G9KT 18/M02 A3015 RMK A01 T01801020  RH  026%=      5-min Rain = 0
KBWS 171925Z 25005KT 18/M02 A3015 RMK A01 T01781016  RH  027%=      5-min Rain = 0
KBWS 171930Z 25003KT 18/M02 A3015 RMK A01 T01781022  RH  026%=      5-min Rain = 0
KBWS 171935Z 24004KT 18/M02 A3014 RMK A01 T01791022  RH  026%=      5-min Rain = 0
KBWS 171940Z 21005KT 18/M02 A3014 RMK A01 T01801018  RH  026%=      5-min Rain = 0
KBWS 171945Z 22004KT 18/M02 A3014 RMK A01 T01811018  RH  026%=      5-min Rain = 0
KBWS 171950Z 23005KT 18/M02 A3014 RMK A01 T01811018  RH  026%=      5-min Rain = 0
KBWS 171955Z 19003KT 18/M02 A3013 RMK A01 T01811023  RH  025%=      5-min Rain = 0
KBWS 172000Z 21002KT 18/M02 A3013 RMK A01 T01841020  RH  025%=      5-min Rain = 0
KBWS 172005Z 29003KT 19/M02 A3013 RMK A01 T01871020  RH  025%=      5-min Rain = 0
KBWS 172010Z 26003KT 19/M02 A3012 RMK A01 T01891020  RH  024%=      5-min Rain = 0
KBWS 172015Z 22002KT 19/M02 A3012 RMK A01 T01881023  RH  024%=      5-min Rain = 0
KBWS 172020Z 20002KT 19/M02 A3012 RMK A01 T01891023  RH  024%=      5-min Rain = 0
KBWS 172025Z 20002KT 19/M02 A3011 RMK A01 T01931021  RH  024%=      5-min Rain = 0
KBWS 172030Z 18003KT 19/M02 A3011 RMK A01 T01891018  RH  025%=      5-min Rain = 0
KBWS 172035Z 15003KT 19/M02 A3011 RMK A01 T01891018  RH  025%=      5-min Rain = 0
KBWS 172040Z 19003KT 19/M02 A3011 RMK A01 T01911018  RH  024%=      5-min Rain = 0
KBWS 172045Z 22004KT 19/M02 A3011 RMK A01 T01921020  RH  024%=      5-min Rain = 0
KBWS 172050Z 22003KT 19/M02 A3011 RMK A01 T01921018  RH  024%=      5-min Rain = 0
KBWS 172055Z 24003KT 19/M02 A3011 RMK A01 T01931021  RH  024%=      5-min Rain = 0
KBWS 172100Z 21003KT 20/M02 A3011 RMK A01 T01951020  RH  024%=      5-min Rain = 0
KBWS 172105Z 23004KT 20/M02 A301 RMK A01 T01981019  RH  023%=      5-min Rain = 0
KBWS 172110Z 22003KT 19/M03 A301 RMK A01 T01931025  RH  023%=      5-min Rain = 0
KBWS 172115Z 19004KT 19/M03 A301 RMK A01 T01921025  RH  023%=      5-min Rain = 0
KBWS 172120Z 20003KT 19/M03 A301 RMK A01 T01941027  RH  023%=      5-min Rain = 0
KBWS 172125Z 23005KT 20/M02 A301 RMK A01 T01981018  RH  023%=      5-min Rain = 0
KBWS 172130Z 23005KT 20/M02 A301 RMK A01 T01961024  RH  023%=      5-min Rain = 0
KBWS 172135Z 22005KT 20/M02 A301 RMK A01 T01951021  RH  023%=      5-min Rain = 0
KBWS 172140Z 23004KT 20/M03 A301 RMK A01 T01981028  RH  022%=      5-min Rain = 0
KBWS 172145Z 19004KT 20/M02 A301 RMK A01 T02011024  RH  022%=      5-min Rain = 0
KBWS 172150Z 20005KT 20/M03 A301 RMK A01 T01981025  RH  022%=      5-min Rain = 0
KBWS 172155Z 22004KT 19/M03 A3009 RMK A01 T01921026  RH  023%=      5-min Rain = 0
KBWS 172200Z 20004KT 19/M02 A3009 RMK A01 T01911022  RH  024%=      5-min Rain = 0
KBWS 172205Z 23003KT 19/M03 A3009 RMK A01 T01911028  RH  023%=      5-min Rain = 0
KBWS 172210Z 24003KT 19/M03 A301 RMK A01 T01901026  RH  023%=      5-min Rain = 0
KBWS 172215Z 21003KT 19/M02 A301 RMK A01 T01911016  RH  025%=      5-min Rain = 0
KBWS 172220Z 21005KT 19/M01 A301 RMK A01 T01921010  RH  026%=      5-min Rain = 0
KBWS 172225Z 21004KT 19/M01 A301 RMK A01 T01901010  RH  026%=      5-min Rain = 0
KBWS 172230Z 20004KT 19/M01 A3009 RMK A01 T01901006  RH  027%=      5-min Rain = 0
KBWS 172235Z 20004KT 19/M00 A3009 RMK A01 T01911004  RH  027%=      5-min Rain = 0
KBWS 172240Z 18005KT 19/02 A3009 RMK A01 T01890019  RH  032%=      5-min Rain = 0
KBWS 172245Z 17006KT 19/02 A3009 RMK A01 T01860021  RH  034%=      5-min Rain = 0
KBWS 172250Z 18006KT 19/01 A3009 RMK A01 T01860014  RH  032%=      5-min Rain = 0
KBWS 172255Z 18006KT 18/03 A3009 RMK A01 T01810028  RH  036%=      5-min Rain = 0
KBWS 172300Z 18006KT 18/02 A3009 RMK A01 T01760022  RH  036%=      5-min Rain = 0
KBWS 172305Z 18006KT 17/02 A3009 RMK A01 T01730024  RH  037%=      5-min Rain = 0
KBWS 172310Z 18006KT 17/03 A3009 RMK A01 T01720030  RH  039%=      5-min Rain = 0
KBWS 172315Z 19007KT 18/02 A3008 RMK A01 T01780016  RH  034%=      5-min Rain = 0
KBWS 172320Z 18007KT 18/02 A3008 RMK A01 T01790016  RH  034%=      5-min Rain = 0
KBWS 172325Z 18007KT 18/01 A3008 RMK A01 T01770014  RH  034%=      5-min Rain = 0
KBWS 172330Z 19007KT 17/02 A3008 RMK A01 T01740015  RH  035%=      5-min Rain = 0
KBWS 172335Z 18007KT 17/01 A3008 RMK A01 T01710014  RH  035%=      5-min Rain = 0
KBWS 172340Z 18007KT 17/02 A3008 RMK A01 T01660018  RH  037%=      5-min Rain = 0
KBWS 172345Z 18007KT 16/02 A3008 RMK A01 T01570021  RH  040%=      5-min Rain = 0
KBWS 172350Z 17007KT 15/03 A3008 RMK A01 T01470025  RH  044%=      5-min Rain = 0
KBWS 172355Z 17007KT 14/03 A3007 RMK A01 T01390026  RH  047%=      5-min Rain = 0
KBWS 180000Z 17006KT 14/02 A3007 RMK A01 T01370024  RH  047%=      5-min Rain = 0
KBWS 180005Z 16005KT 14/02 A3007 RMK A01 T01360021  RH  046%=      5-min Rain = 0
KBWS 180010Z 16005KT 14/02 A3007 RMK A01 T01350023  RH  047%=      5-min Rain = 0
KBWS 180015Z 15004KT 13/02 A3007 RMK A01 T01270023  RH  050%=      5-min Rain = 0
KBWS 180020Z 16005KT 13/01 A3007 RMK A01 T01250012  RH  046%=      5-min Rain = 0
KBWS 180025Z 16005KT 12/01 A3007 RMK A01 T01210010  RH  047%=      5-min Rain = 0
KBWS 180030Z 16005KT 12/00 A3007 RMK A01 T01230004  RH  045%=      5-min Rain = 0
KBWS 180035Z 16006KT 12/00 A3007 RMK A01 T01220004  RH  045%=      5-min Rain = 0
KBWS 180040Z 16006KT 12/01 A3008 RMK A01 T01190008  RH  047%=      5-min Rain = 0
KBWS 180045Z 16007KT 12/00 A3008 RMK A01 T01210004  RH  045%=      5-min Rain = 0
KBWS 180050Z 16008KT 11/01 A3008 RMK A01 T01130005  RH  048%=      5-min Rain = 0
KBWS 180055Z 17007KT 11/00 A3008 RMK A01 T01060000  RH  049%=      5-min Rain = 0
KBWS 180100Z 17008KT 11/M00 A3008 RMK A01 T01061003  RH  047%=      5-min Rain = 0
KBWS 180105Z 18009KT 11/M00 A3008 RMK A01 T01051002  RH  048%=      5-min Rain = 0
KBWS 180110Z 19010KT 11/00 A3008 RMK A01 T01060000  RH  048%=      5-min Rain = 0
KBWS 180115Z 19010KT 11/M00 A3008 RMK A01 T01081001  RH  047%=      5-min Rain = 0
KBWS 180120Z 20009KT 11/M00 A3008 RMK A01 T01131004  RH  045%=      5-min Rain = 0
KBWS 180125Z 20009KT 12/M01 A3008 RMK A01 T01151009  RH  043%=      5-min Rain = 0
KBWS 180130Z 21009KT 12/M01 A3008 RMK A01 T01181011  RH  041%=      5-min Rain = 0
KBWS 180135Z 21009KT 12/M01 A3008 RMK A01 T01211011  RH  040%=      5-min Rain = 0
KBWS 180140Z 21008KT 11/M01 A3008 RMK A01 T01141010  RH  043%=      5-min Rain = 0
KBWS 180145Z 21008KT 11/M01 A3008 RMK A01 T01101009  RH  044%=      5-min Rain = 0
KBWS 180150Z 22007KT 11/M01 A3008 RMK A01 T01051010  RH  045%=      5-min Rain = 0
KBWS 180155Z 22007KT 10/M01 A3008 RMK A01 T01021011  RH  046%=      5-min Rain = 0
KBWS 180200Z 22008KT 10/M01 A3008 RMK A01 T01011014  RH  045%=      5-min Rain = 0
KBWS 180205Z 22008KT 10/M01 A3008 RMK A01 T00951013  RH  047%=      5-min Rain = 0
KBWS 180210Z 22007KT 09/M01 A3008 RMK A01 T00921013  RH  049%=      5-min Rain = 0
KBWS 180215Z 21008KT 09/M01 A3008 RMK A01 T00881012  RH  050%=      5-min Rain = 0
KBWS 180220Z 21009KT 09/M01 A3008 RMK A01 T00881010  RH  051%=      5-min Rain = 0
KBWS 180225Z 21008KT 09/M01 A3008 RMK A01 T00901008  RH  051%=      5-min Rain = 0
KBWS 180230Z 22009KT 09/M01 A3008 RMK A01 T00911009  RH  050%=      5-min Rain = 0
KBWS 180235Z 21008KT 09/M01 A3007 RMK A01 T00871008  RH  052%=      5-min Rain = 0
KBWS 180240Z 19008KT 08/M01 A3007 RMK A01 T00831009  RH  053%=      5-min Rain = 0
KBWS 180245Z 19009KT 07/M01 A3007 RMK A01 T00721007  RH  058%=      5-min Rain = 0
KBWS 180250Z 20010KT 08/M01 A3007 RMK A01 T00791010  RH  054%=      5-min Rain = 0
KBWS 180255Z 20009KT 08/M01 A3007 RMK A01 T00831009  RH  053%=      5-min Rain = 0
KBWS 180300Z 20009KT 08/M01 A3007 RMK A01 T00821008  RH  054%=      5-min Rain = 0
KBWS 180305Z 20008KT 08/M01 A3006 RMK A01 T00791008  RH  055%=      5-min Rain = 0
KBWS 180310Z 20008KT 07/M01 A3006 RMK A01 T00741009  RH  056%=      5-min Rain = 0
KBWS 180315Z 21008KT 07/M01 A3006 RMK A01 T00711010  RH  057%=      5-min Rain = 0
KBWS 180320Z 21009KT 07/M01 A3006 RMK A01 T00721008  RH  057%=      5-min Rain = 0
KBWS 180325Z 21009KT 07/M01 A3006 RMK A01 T00741007  RH  057%=      5-min Rain = 0
KBWS 180330Z 21009KT 07/M01 A3006 RMK A01 T00741007  RH  057%=      5-min Rain = 0
KBWS 180335Z 22008KT 08/M01 A3006 RMK A01 T00761007  RH  056%=      5-min Rain = 0
KBWS 180340Z 22008KT 07/M01 A3006 RMK A01 T00731008  RH  057%=      5-min Rain = 0
KBWS 180345Z 22008KT 07/M01 A3006 RMK A01 T00711009  RH  057%=      5-min Rain = 0
KBWS 180350Z 22008KT 07/M01 A3005 RMK A01 T00731011  RH  056%=      5-min Rain = 0
KBWS 180355Z 22008KT 07/M01 A3006 RMK A01 T00691011  RH  057%=      5-min Rain = 0
KBWS 180400Z 22008KT 07/M01 A3006 RMK A01 T00681012  RH  057%=      5-min Rain = 0
KBWS 180405Z 23008KT 07/M01 A3006 RMK A01 T00691011  RH  057%=      5-min Rain = 0
KBWS 180410Z 22008KT 07/M01 A3006 RMK A01 T00701011  RH  057%=      5-min Rain = 0
KBWS 180415Z 22009KT 07/M01 A3006 RMK A01 T00681013  RH  057%=      5-min Rain = 0
KBWS 180420Z 22009KT 07/M01 A3005 RMK A01 T00651013  RH  058%=      5-min Rain = 0
KBWS 180425Z 22009KT 07/M01 A3005 RMK A01 T00651013  RH  058%=      5-min Rain = 0
KBWS 180430Z 22010KT 07/M01 A3005 RMK A01 T00671010  RH  059%=      5-min Rain = 0
KBWS 180435Z 21009KT 07/M01 A3005 RMK A01 T00741006  RH  057%=      5-min Rain = 0
KBWS 180440Z 22009KT 08/M01 A3005 RMK A01 T00781006  RH  056%=      5-min Rain = 0
KBWS 180445Z 22009KT 08/M01 A3005 RMK A01 T00761007  RH  056%=      5-min Rain = 0
KBWS 180450Z 22009KT 07/M01 A3005 RMK A01 T00741008  RH  057%=      5-min Rain = 0
KBWS 180455Z 22008KT 07/M01 A3004 RMK A01 T00731008  RH  057%=      5-min Rain = 0
KBWS 180500Z 22007KT 07/M01 A3004 RMK A01 T00701008  RH  058%=      5-min Rain = 0
KBWS 180505Z 22008KT 07/M01 A3004 RMK A01 T00701009  RH  058%=      5-min Rain = 0
KBWS 180510Z 22009KT 07/M01 A3004 RMK A01 T00691009  RH  058%=      5-min Rain = 0
KBWS 180515Z 22009KT 07/M01 A3003 RMK A01 T00651010  RH  059%=      5-min Rain = 0
KBWS 180520Z 22008KT 06/M01 A3003 RMK A01 T00611010  RH  061%=      5-min Rain = 0
KBWS 180525Z 22007KT 06/M01 A3004 RMK A01 T00571010  RH  063%=      5-min Rain = 0
KBWS 180530Z 23007KT 06/M01 A3004 RMK A01 T00551010  RH  064%=      5-min Rain = 0
KBWS 180535Z 23007KT 06/M01 A3004 RMK A01 T00601009  RH  062%=      5-min Rain = 0
KBWS 180540Z 23007KT 06/M01 A3004 RMK A01 T00601009  RH  062%=      5-min Rain = 0
KBWS 180545Z 22008KT 06/M01 A3004 RMK A01 T00611009  RH  061%=      5-min Rain = 0
KBWS 180550Z 23008KT 06/M01 A3004 RMK A01 T00601010  RH  061%=      5-min Rain = 0
KBWS 180555Z 23007KT 06/M01 A3003 RMK A01 T00591009  RH  062%=      5-min Rain = 0

Page generated in 0.0089 seconds.